Time;durP1;ratioP1;P1;durP2;ratioP2;P2;SDS_P1;SDS_P2;PMS_P1;PMS_P2;Temp;Humidity;BMP_temperature;BMP_pressure;BME280_temperature;BME280_humidity;BME280_pressure;Samples;Min_cycle;Max_cycle;Signal;HPM_P1;HPM_P2
2022/07/14 00:01:21;;;;;;;10.10;3.63;;;;;;;-145.18;100.00;46660.41;5051359;28;20060;-73
2022/07/14 00:03:46;;;;;;;11.23;3.70;;;;;;;-145.18;100.00;46660.41;5051715;28;20083;-73
2022/07/14 00:06:12;;;;;;;10.20;4.50;;;;;;;-145.18;100.00;46660.41;5051283;28;20478;-72
2022/07/14 00:08:38;;;;;;;14.50;4.63;;;;;;;-145.18;100.00;46660.41;5052151;28;20490;-73
2022/07/14 00:11:04;;;;;;;10.53;4.23;;;;;;;-145.18;100.00;46658.44;5049825;28;20041;-73
2022/07/14 00:13:29;;;;;;;9.97;4.70;;;;;;;-145.18;100.00;46660.41;5052035;28;20424;-73
2022/07/14 00:15:55;;;;;;;9.00;3.30;;;;;;;-145.18;100.00;46660.41;5051723;28;20025;-73
2022/07/14 00:18:20;;;;;;;10.23;3.50;;;;;;;-145.18;100.00;46656.50;5051370;28;20524;-73
2022/07/14 00:20:46;;;;;;;8.10;3.87;;;;;;;-145.18;100.00;46652.59;5051690;28;20033;-73
2022/07/14 00:23:11;;;;;;;15.33;4.47;;;;;;;-145.18;100.00;46654.53;5051102;28;20147;-72
2022/07/14 00:25:37;;;;;;;11.90;4.10;;;;;;;-145.18;100.00;46654.53;5051613;28;20032;-73
2022/07/14 00:28:02;;;;;;;9.67;4.03;;;;;;;-145.18;100.00;46652.59;5051036;28;20052;-73
2022/07/14 00:30:28;;;;;;;10.20;4.47;;;;;;;-145.18;100.00;46658.44;5051466;28;20037;-73
2022/07/14 00:32:54;;;;;;;14.83;4.43;;;;;;;-145.18;100.00;46658.44;5051028;28;20063;-73
2022/07/14 00:35:20;;;;;;;13.27;4.10;;;;;;;-145.18;100.00;46656.50;5051151;28;20051;-73
2022/07/14 00:37:45;;;;;;;10.77;4.13;;;;;;;-145.18;100.00;46654.53;5050848;28;20025;-73
2022/07/14 00:40:11;;;;;;;12.17;4.37;;;;;;;-145.18;100.00;46654.53;5051155;28;20051;-73
2022/07/14 00:42:39;;;;;;;8.50;4.50;;;;;;;-145.18;100.00;46652.59;5050990;28;20050;-73
2022/07/14 00:45:05;;;;;;;10.10;3.77;;;;;;;-145.18;100.00;46650.63;5050586;28;20025;-73
2022/07/14 00:47:31;;;;;;;13.17;3.87;;;;;;;-145.18;100.00;46642.81;5063975;28;20025;-72
2022/07/14 00:49:57;;;;;;;11.33;4.03;;;;;;;-145.18;100.00;46652.59;5071024;28;20094;-73
2022/07/14 00:52:27;;;;;;;11.67;4.20;;;;;;;-145.18;100.00;46652.59;5070277;28;20113;-73
2022/07/14 00:54:53;;;;;;;9.07;3.60;;;;;;;-145.18;100.00;46654.53;5070796;28;20032;-73
2022/07/14 00:57:19;;;;;;;10.47;3.60;;;;;;;-145.18;100.00;46652.59;5070431;28;20086;-72
2022/07/14 00:59:46;;;;;;;9.90;4.07;;;;;;;-145.18;100.00;46654.53;5070579;28;20028;-73
2022/07/14 01:02:12;;;;;;;13.53;3.30;;;;;;;-145.18;100.00;46654.53;5051955;28;20511;-73
2022/07/14 01:04:37;;;;;;;15.47;3.53;;;;;;;-145.18;100.00;46656.50;5070656;28;20052;-72
2022/07/14 01:07:02;;;;;;;14.43;3.80;;;;;;;-145.18;100.00;46656.50;5052122;28;20036;-73
2022/07/14 01:09:28;;;;;;;13.60;4.03;;;;;;;-145.18;100.00;46652.59;5070660;28;20107;-73
2022/07/14 01:11:53;;;;;;;19.57;4.10;;;;;;;-145.18;100.00;46652.59;5070553;28;20376;-73
2022/07/14 01:14:19;;;;;;;15.43;3.87;;;;;;;-145.18;100.00;46656.50;5070594;28;20044;-73
2022/07/14 01:16:44;;;;;;;17.10;4.83;;;;;;;-145.18;100.00;46654.53;5070001;28;20028;-73
2022/07/14 01:19:09;;;;;;;19.77;4.80;;;;;;;-145.18;100.00;46654.53;5069743;28;20481;-73
2022/07/14 01:21:35;;;;;;;14.37;3.43;;;;;;;-145.18;100.00;46652.59;5070508;28;20548;-73
2022/07/14 01:24:00;;;;;;;13.00;3.90;;;;;;;-145.18;100.00;46656.50;5070695;28;20638;-73
2022/07/14 01:26:26;;;;;;;11.33;4.10;;;;;;;-145.18;100.00;46658.44;5070155;28;20435;-72
2022/07/14 01:28:51;;;;;;;17.10;4.40;;;;;;;-145.18;100.00;46656.50;5070440;28;20033;-73
2022/07/14 01:31:16;;;;;;;13.13;4.13;;;;;;;-145.18;100.00;46654.53;5069552;28;20068;-73
2022/07/14 01:33:42;;;;;;;13.33;4.23;;;;;;;-145.18;100.00;46658.44;5069327;28;20028;-73
2022/07/14 01:36:07;;;;;;;11.13;4.07;;;;;;;-145.18;100.00;46660.41;5070031;28;20032;-73
2022/07/14 01:38:33;;;;;;;14.40;4.30;;;;;;;-145.18;100.00;46654.53;5069854;28;20037;-72
2022/07/14 01:40:58;;;;;;;14.33;3.60;;;;;;;-145.18;100.00;46654.53;5070452;28;20031;-73
2022/07/14 01:43:23;;;;;;;12.67;4.57;;;;;;;-145.18;100.00;46656.50;5069400;28;20508;-73
2022/07/14 01:45:49;;;;;;;15.27;5.00;;;;;;;-145.18;100.00;46656.50;5070403;28;20074;-73
2022/07/14 01:48:14;;;;;;;16.53;4.50;;;;;;;-145.18;100.00;46656.50;5069715;28;20579;-73
2022/07/14 01:50:40;;;;;;;12.77;4.33;;;;;;;-145.18;100.00;46654.53;5070372;28;20037;-73
2022/07/14 01:53:05;;;;;;;12.77;3.73;;;;;;;-145.18;100.00;46656.50;5069451;28;20051;-73
2022/07/14 01:55:30;;;;;;;12.33;3.77;;;;;;;-145.18;100.00;46656.50;5070083;28;20029;-73
2022/07/14 01:57:56;;;;;;;15.80;4.33;;;;;;;-145.18;100.00;46658.44;5069917;28;20028;-72
2022/07/14 02:02:58;;;;;;;11.67;4.87;;;;;;;-145.18;100.00;46656.50;5187881;22;20055;-72
2022/07/14 02:05:23;;;;;;;18.63;4.93;;;;;;;-145.18;100.00;46658.44;5103958;28;20371;-72
2022/07/14 02:07:48;;;;;;;12.50;4.47;;;;;;;-145.18;100.00;46658.44;5091559;28;20127;-72
2022/07/14 02:12:58;;;;;;;17.43;4.43;;;;;;;-145.18;100.00;46654.53;5110246;28;20047;-72
2022/07/14 02:15:23;;;;;;;16.03;4.37;;;;;;;-145.18;100.00;46656.50;5107289;28;20032;-72
2022/07/14 02:17:49;;;;;;;15.03;5.07;;;;;;;-145.18;100.00;46656.50;5109396;28;20035;-72
2022/07/14 02:20:14;;;;;;;11.00;3.77;;;;;;;-145.18;100.00;46656.50;5100585;28;20032;-72
2022/07/14 02:22:39;;;;;;;12.40;3.83;;;;;;;-145.18;100.00;46640.88;5089667;28;20068;-72
2022/07/14 02:25:05;;;;;;;13.90;4.90;;;;;;;-145.18;100.00;46654.53;5072181;28;20032;-72
2022/07/14 02:27:31;;;;;;;12.40;4.20;;;;;;;-145.18;100.00;46656.50;5089644;28;20036;-73
2022/07/14 02:29:56;;;;;;;12.83;4.27;;;;;;;-145.18;100.00;46652.59;5090956;28;20057;-72
2022/07/14 02:32:22;;;;;;;13.40;3.50;;;;;;;-145.18;100.00;46652.59;5075217;28;20043;-72
2022/07/14 02:34:47;;;;;;;15.90;4.50;;;;;;;-145.18;100.00;46652.59;5093797;28;20039;-72
2022/07/14 02:37:14;;;;;;;12.43;4.37;;;;;;;-145.18;100.00;46650.63;5093186;28;20039;-72
2022/07/14 02:39:39;;;;;;;14.03;3.57;;;;;;;-145.18;100.00;46650.63;5093613;28;20165;-72
2022/07/14 02:42:05;;;;;;;10.90;3.73;;;;;;;-145.18;100.00;46656.50;5093393;28;20127;-72
2022/07/14 02:44:30;;;;;;;11.30;3.90;;;;;;;-145.18;100.00;46654.53;5093576;28;20032;-72
2022/07/14 02:46:55;;;;;;;12.17;4.03;;;;;;;-145.18;100.00;46652.59;5093441;28;20032;-72
2022/07/14 02:49:21;;;;;;;11.50;3.80;;;;;;;-145.18;100.00;46652.59;5093593;28;20035;-72
2022/07/14 02:51:46;;;;;;;20.00;4.40;;;;;;;-145.18;100.00;46652.59;5093001;28;20032;-72
2022/07/14 02:54:12;;;;;;;7.63;3.43;;;;;;;-145.18;100.00;46650.63;5093394;28;20043;-72
2022/07/14 02:56:37;;;;;;;10.73;3.30;;;;;;;-145.18;100.00;46652.59;5074972;28;20039;-72
2022/07/14 02:59:06;;;;;;;13.87;3.73;;;;;;;-145.18;100.00;46654.53;5093296;28;20032;-72
2022/07/14 03:01:32;;;;;;;15.63;4.10;;;;;;;-145.18;100.00;46650.63;5087010;28;20033;-72
2022/07/14 03:03:57;;;;;;;9.80;3.90;;;;;;;-145.18;100.00;46642.81;5072821;28;20060;-72
2022/07/14 03:06:23;;;;;;;15.43;3.53;;;;;;;-145.18;100.00;46640.88;5055278;28;20043;-72
2022/07/14 03:08:48;;;;;;;13.43;3.57;;;;;;;-145.18;100.00;46654.53;5072502;28;20108;-72
2022/07/14 03:11:13;;;;;;;18.40;3.87;;;;;;;-145.18;100.00;46642.81;5072971;28;20037;-72
2022/07/14 03:13:40;;;;;;;15.10;4.07;;;;;;;-145.18;100.00;46642.81;5072403;28;20496;-72
2022/07/14 03:16:09;;;;;;;14.57;3.90;;;;;;;-145.18;100.00;46652.59;5072713;28;20056;-73
2022/07/14 03:18:34;;;;;;;12.30;3.20;;;;;;;-145.18;100.00;46644.78;5087197;28;20063;-73
2022/07/14 03:21:00;;;;;;;20.03;3.77;;;;;;;-145.18;100.00;46640.88;5092294;28;20539;-72
2022/07/14 03:23:25;;;;;;;15.67;3.83;;;;;;;-145.18;100.00;46650.63;5091417;28;20142;-73
2022/07/14 03:25:50;;;;;;;12.17;3.60;;;;;;;-145.18;100.00;46652.59;5091711;28;20028;-72
2022/07/14 03:28:16;;;;;;;9.97;3.67;;;;;;;-145.18;100.00;46642.81;5091739;28;20040;-72
2022/07/14 03:30:42;;;;;;;12.70;3.13;;;;;;;-145.18;100.00;46642.81;5092410;28;20472;-72
2022/07/14 03:33:07;;;;;;;7.27;3.03;;;;;;;-145.18;100.00;46640.88;5091526;28;20032;-73
2022/07/14 03:35:36;;;;;;;10.13;3.80;;;;;;;-145.18;100.00;46640.88;5091909;28;20055;-73
2022/07/14 03:38:01;;;;;;;10.67;3.00;;;;;;;-145.18;100.00;46642.81;5092524;28;20139;-72
2022/07/14 03:40:27;;;;;;;13.10;3.70;;;;;;;-145.18;100.00;46640.88;5086878;28;20115;-72
2022/07/14 03:42:52;;;;;;;12.10;2.80;;;;;;;-145.18;100.00;46650.63;5091064;28;20466;-72
2022/07/14 03:45:18;;;;;;;13.07;3.57;;;;;;;-145.18;100.00;46652.59;5091830;28;20082;-72
2022/07/14 03:47:43;;;;;;;12.43;3.30;;;;;;;-145.18;100.00;46652.59;5091573;28;20036;-72
2022/07/14 03:50:10;;;;;;;13.10;3.10;;;;;;;-145.18;100.00;46642.81;5091714;28;20059;-72
2022/07/14 03:52:36;;;;;;;12.03;3.20;;;;;;;-145.18;100.00;46652.59;5090979;28;20036;-73
2022/07/14 03:55:01;;;;;;;6.47;2.77;;;;;;;-145.18;100.00;46650.63;5073578;28;20089;-72
2022/07/14 03:57:27;;;;;;;12.20;2.70;;;;;;;-145.18;100.00;46650.63;5091397;28;20031;-73
2022/07/14 03:59:52;;;;;;;9.93;2.30;;;;;;;-145.18;100.00;46652.59;5091491;28;20480;-72
2022/07/14 04:02:18;;;;;;;9.87;2.80;;;;;;;-145.18;100.00;46652.59;5088293;28;20384;-73
2022/07/14 04:04:43;;;;;;;11.47;3.40;;;;;;;-145.18;100.00;46642.81;5091532;28;20097;-72
2022/07/14 04:07:08;;;;;;;10.90;3.33;;;;;;;-145.18;100.00;46656.50;5090825;28;20103;-73
2022/07/14 04:09:34;;;;;;;11.43;2.77;;;;;;;-145.18;100.00;46656.50;5091541;28;20111;-72
2022/07/14 04:11:59;;;;;;;10.77;3.07;;;;;;;-145.18;100.00;46650.63;5091679;28;20028;-72
2022/07/14 04:14:25;;;;;;;8.27;3.07;;;;;;;-145.18;100.00;46658.44;5091703;28;20058;-72
2022/07/14 04:16:51;;;;;;;10.00;2.40;;;;;;;-145.18;100.00;46656.50;5091597;28;20058;-72
2022/07/14 04:19:16;;;;;;;10.33;3.30;;;;;;;-145.18;100.00;46654.53;5091092;28;20024;-72
2022/07/14 04:21:42;;;;;;;6.10;2.50;;;;;;;-145.18;100.00;46658.44;5090954;28;20032;-72
2022/07/14 04:24:07;;;;;;;10.47;2.87;;;;;;;-145.18;100.00;46656.50;5091317;28;20047;-73
2022/07/14 04:26:33;;;;;;;6.90;2.50;;;;;;;-145.18;100.00;46656.50;5090448;28;20028;-72
2022/07/14 04:28:58;;;;;;;11.27;2.83;;;;;;;-145.18;100.00;46656.50;5091591;28;20111;-72
2022/07/14 04:31:24;;;;;;;10.00;3.00;;;;;;;-145.18;100.00;46658.44;5090846;28;20833;-73
2022/07/14 04:33:49;;;;;;;14.17;2.90;;;;;;;-145.18;100.00;46660.41;5091020;28;20097;-73
2022/07/14 04:36:15;;;;;;;9.93;2.73;;;;;;;-145.18;100.00;46654.53;5090276;28;20028;-73
2022/07/14 04:38:41;;;;;;;9.50;3.07;;;;;;;-145.18;100.00;46660.41;5089557;28;20058;-73
2022/07/14 04:41:07;;;;;;;9.87;3.10;;;;;;;-145.18;100.00;46660.41;5090794;28;20038;-72
2022/07/14 04:43:33;;;;;;;7.43;3.53;;;;;;;-145.18;100.00;46654.53;5090542;28;20032;-73
2022/07/14 04:45:58;;;;;;;12.53;3.67;;;;;;;-145.18;100.00;46656.50;5091208;28;20059;-72
2022/07/14 04:48:24;;;;;;;11.87;3.93;;;;;;;-145.18;100.00;46656.50;5090762;28;20044;-72
2022/07/14 04:53:38;;;;;;;13.40;3.67;;;;;;;-145.18;100.00;46642.81;5090078;28;20265;-72
2022/07/14 04:56:04;;;;;;;12.73;3.40;;;;;;;-145.18;100.00;46652.59;5091358;28;20035;-73
2022/07/14 04:58:30;;;;;;;13.13;4.07;;;;;;;-145.18;100.00;46652.59;5090620;28;20032;-73
2022/07/14 05:00:58;;;;;;;8.07;3.50;;;;;;;-145.18;100.00;46652.59;5091163;28;20032;-72
2022/07/14 05:03:24;;;;;;;18.43;4.03;;;;;;;-145.18;100.00;46642.81;5090214;28;20048;-72
2022/07/14 05:05:49;;;;;;;18.27;4.37;;;;;;;-145.18;100.00;46640.88;5090840;28;20498;-72
2022/07/14 05:08:15;;;;;;;17.67;4.57;;;;;;;-145.18;100.00;46650.63;5090585;28;20039;-72
2022/07/14 05:10:40;;;;;;;10.10;3.87;;;;;;;-145.18;100.00;46642.81;5090641;28;20477;-73
2022/07/14 05:13:05;;;;;;;15.40;3.63;;;;;;;-145.18;100.00;46642.81;5089755;28;20068;-72
2022/07/14 05:15:31;;;;;;;14.43;3.90;;;;;;;-145.18;100.00;46642.81;5090223;28;20028;-72
2022/07/14 05:17:57;;;;;;;14.07;3.73;;;;;;;-145.18;100.00;46652.59;5089892;28;20089;-73
2022/07/14 05:20:22;;;;;;;11.17;3.87;;;;;;;-145.18;100.00;46654.53;5090969;28;20297;-72
2022/07/14 05:22:48;;;;;;;19.20;4.27;;;;;;;-145.18;100.00;46652.59;5072707;28;20039;-73
2022/07/14 05:25:14;;;;;;;16.43;3.73;;;;;;;-145.18;100.00;46648.69;5070367;28;20037;-72
2022/07/14 05:27:41;;;;;;;17.90;4.57;;;;;;;-145.18;100.00;46652.59;5068992;28;20036;-72
2022/07/14 05:30:08;;;;;;;13.00;3.83;;;;;;;-145.18;100.00;46652.59;5070287;28;20480;-72
2022/07/14 05:32:35;;;;;;;13.23;3.67;;;;;;;-145.18;100.00;46652.59;5069815;28;20055;-72
2022/07/14 05:35:01;;;;;;;15.90;3.57;;;;;;;-145.18;100.00;46652.59;5070481;28;20428;-72
2022/07/14 05:37:27;;;;;;;20.10;3.97;;;;;;;-145.18;100.00;46640.88;5070190;28;20032;-72
2022/07/14 05:39:52;;;;;;;15.07;3.60;;;;;;;-145.18;100.00;46654.53;5070268;28;20568;-72
2022/07/14 05:42:21;;;;;;;17.07;3.50;;;;;;;-145.18;100.00;46652.59;5070291;28;20056;-72
2022/07/14 05:44:47;;;;;;;21.47;3.57;;;;;;;-145.18;100.00;46613.50;5069878;28;20037;-72
2022/07/14 05:47:13;;;;;;;14.83;4.03;;;;;;;-145.18;100.00;46611.56;5070240;28;20036;-72
2022/07/14 05:49:42;;;;;;;24.20;3.97;;;;;;;-145.18;100.00;46611.56;5070002;28;20020;-73
2022/07/14 05:52:14;;;;;;;21.13;4.60;;;;;;;-145.18;100.00;46613.50;5090036;28;20028;-72
2022/07/14 05:54:40;;;;;;;20.07;4.10;;;;;;;-145.18;100.00;46617.41;5090081;28;20028;-72
2022/07/14 05:57:09;;;;;;;21.03;4.70;;;;;;;-145.18;100.00;46619.38;5090041;28;20039;-72
2022/07/14 05:59:34;;;;;;;13.50;3.20;;;;;;;-145.18;100.00;46617.41;5090085;28;20043;-72
2022/07/14 06:02:00;;;;;;;18.20;3.40;;;;;;;-145.18;100.00;46617.41;5090256;28;20446;-72
2022/07/14 06:04:26;;;;;;;19.13;3.20;;;;;;;-145.18;100.00;46613.50;5091999;28;20403;-72
2022/07/14 06:06:51;;;;;;;13.07;3.00;;;;;;;-145.18;100.00;46619.38;5094455;28;20388;-73
2022/07/14 06:09:17;;;;;;;13.90;3.27;;;;;;;-145.18;100.00;46619.38;5094053;28;20067;-72
2022/07/14 06:11:44;;;;;;;13.40;3.00;;;;;;;-145.18;100.00;46621.31;5094094;28;20040;-72
2022/07/14 06:14:10;;;;;;;17.00;3.00;;;;;;;-145.18;100.00;46619.38;5093578;28;20093;-72
2022/07/14 06:16:35;;;;;;;14.17;2.87;;;;;;;-145.18;100.00;46621.31;5094157;28;20036;-72
2022/07/14 06:19:01;;;;;;;15.03;4.33;;;;;;;-145.18;100.00;46625.22;5093706;28;20028;-73
2022/07/14 06:21:27;;;;;;;18.50;3.73;;;;;;;-145.18;100.00;46623.28;5086179;28;20032;-72
2022/07/14 06:23:52;;;;;;;22.20;4.10;;;;;;;-145.18;100.00;46621.31;5089415;28;20058;-73
2022/07/14 06:26:17;;;;;;;14.33;3.23;;;;;;;-145.18;100.00;46627.19;5093437;28;20028;-72
2022/07/14 06:28:43;;;;;;;22.40;4.10;;;;;;;-145.18;100.00;46625.22;5092744;28;20031;-72
2022/07/14 06:31:09;;;;;;;17.13;4.13;;;;;;;-145.18;100.00;46625.22;5093211;28;20028;-73
2022/07/14 06:33:34;;;;;;;14.30;3.10;;;;;;;-145.18;100.00;46627.19;5085872;28;20024;-72
2022/07/14 06:35:59;;;;;;;15.53;2.83;;;;;;;-145.18;100.00;46629.13;5070094;28;20032;-73
2022/07/14 06:38:25;;;;;;;17.07;3.57;;;;;;;-145.18;100.00;46627.19;5085054;28;20759;-73
2022/07/14 06:40:50;;;;;;;19.73;3.63;;;;;;;-145.18;100.00;46629.13;5093034;28;20032;-73
2022/07/14 06:43:16;;;;;;;26.90;4.77;;;;;;;-145.18;100.00;46631.09;5092506;28;20438;-72
2022/07/14 06:45:41;;;;;;;13.83;3.83;;;;;;;-145.18;100.00;46629.13;5093183;28;20036;-73
2022/07/14 06:48:07;;;;;;;15.33;3.27;;;;;;;-145.18;100.00;46629.13;5073978;28;20055;-72
2022/07/14 06:50:32;;;;;;;15.00;3.10;;;;;;;-145.18;100.00;46633.06;5079330;28;20109;-72
2022/07/14 06:52:57;;;;;;;18.93;3.20;;;;;;;-145.18;100.00;46625.22;5089292;28;20035;-73
2022/07/14 06:55:23;;;;;;;17.40;3.57;;;;;;;-145.18;100.00;46627.19;5092694;28;20046;-73
2022/07/14 06:57:48;;;;;;;18.70;3.47;;;;;;;-145.18;100.00;46629.13;5092429;28;20059;-72
2022/07/14 07:00:14;;;;;;;19.33;3.73;;;;;;;-145.18;100.00;46631.09;5088346;28;20060;-72
2022/07/14 07:02:40;;;;;;;17.97;2.93;;;;;;;-145.18;100.00;46633.06;5086852;28;20044;-73
2022/07/14 07:07:55;;;;;;;16.42;2.95;;;;;;;-145.18;100.00;46633.06;5078985;28;20499;-73
2022/07/14 07:10:21;;;;;;;17.27;3.40;;;;;;;-145.18;100.00;46633.06;5092206;28;20458;-73
2022/07/14 07:12:46;;;;;;;10.53;2.97;;;;;;;-145.18;100.00;46629.13;5092096;28;20127;-72
2022/07/14 07:15:12;;;;;;;17.27;3.77;;;;;;;-145.18;100.00;46635.00;5091780;28;20602;-72
2022/07/14 07:17:37;;;;;;;15.43;3.37;;;;;;;-145.18;100.00;46635.00;5092118;28;20464;-72
2022/07/14 07:20:03;;;;;;;14.20;4.00;;;;;;;-145.18;100.00;46638.91;5092611;28;20460;-73
2022/07/14 07:22:28;;;;;;;14.23;3.00;;;;;;;-145.18;100.00;46642.81;5092074;28;20035;-72
2022/07/14 07:24:53;;;;;;;16.13;3.33;;;;;;;-145.18;100.00;46642.81;5092216;28;20039;-72
2022/07/14 07:27:19;;;;;;;12.07;3.50;;;;;;;-145.18;100.00;46642.81;5092238;28;20408;-73
2022/07/14 07:29:45;;;;;;;12.07;3.07;;;;;;;-145.18;100.00;46642.81;5091887;28;20101;-72
2022/07/14 07:32:11;;;;;;;20.53;5.07;;;;;;;-145.18;100.00;46644.78;5092596;28;20078;-73
2022/07/14 07:34:37;;;;;;;10.53;2.53;;;;;;;-145.18;100.00;46650.63;5091809;28;20557;-73
2022/07/14 07:37:03;;;;;;;16.77;2.97;;;;;;;-145.18;100.00;46650.63;5091926;28;20456;-72
2022/07/14 07:39:29;;;;;;;10.23;2.60;;;;;;;-145.18;100.00;46650.63;5091855;28;20042;-72
2022/07/14 07:41:57;;;;;;;12.30;2.97;;;;;;;-145.18;100.00;46644.78;5091869;28;20039;-73
2022/07/14 07:44:23;;;;;;;10.20;2.43;;;;;;;-145.18;100.00;46644.78;5091962;28;20036;-72
2022/07/14 07:46:48;;;;;;;13.33;2.80;;;;;;;-145.18;100.00;46648.69;5091905;28;20174;-73
2022/07/14 07:49:14;;;;;;;9.27;2.63;;;;;;;-145.18;100.00;46650.63;5079529;28;20040;-72
2022/07/14 07:51:39;;;;;;;10.37;2.40;;;;;;;-145.18;100.00;46646.72;5092043;28;20024;-72
2022/07/14 07:54:05;;;;;;;15.23;3.40;;;;;;;-145.18;100.00;46650.63;5091342;28;20036;-72
2022/07/14 07:56:31;;;;;;;10.47;2.77;;;;;;;-145.18;100.00;46654.53;5092171;28;20553;-72
2022/07/14 07:58:56;;;;;;;13.53;2.80;;;;;;;-145.18;100.00;46650.63;5091223;28;20046;-72
2022/07/14 08:01:22;;;;;;;7.37;2.00;;;;;;;-145.18;100.00;46656.50;5091770;28;20059;-72
2022/07/14 08:03:47;;;;;;;14.23;3.00;;;;;;;-145.18;100.00;46658.44;5090546;28;20055;-73
2022/07/14 08:06:13;;;;;;;14.37;2.70;;;;;;;-145.18;100.00;46650.63;5091813;28;20032;-73
2022/07/14 08:08:38;;;;;;;12.70;2.67;;;;;;;-145.18;100.00;46635.00;5091297;28;20027;-73
2022/07/14 08:11:03;;;;;;;17.47;2.40;;;;;;;-145.18;100.00;46613.50;5091664;28;20128;-73
2022/07/14 08:13:29;;;;;;;9.57;2.23;;;;;;;-145.18;100.00;46597.88;5090907;28;20466;-72
2022/07/14 08:15:58;;;;;;;10.93;1.90;;;;;;;-145.18;100.00;46564.69;5091606;28;20040;-72
2022/07/14 08:18:24;;;;;;;11.53;2.53;;;;;;;-145.18;100.00;46552.97;5091144;28;20036;-73
2022/07/14 08:20:50;;;;;;;17.70;4.07;;;;;;;-145.18;100.00;46556.88;5091478;28;20027;-73
2022/07/14 08:23:15;;;;;;;11.03;2.70;;;;;;;-145.18;100.00;46539.28;5090661;28;20036;-73
2022/07/14 08:25:41;;;;;;;11.43;2.50;;;;;;;-145.18;100.00;46535.38;5091485;28;20032;-72
2022/07/14 08:28:06;;;;;;;12.87;3.33;;;;;;;-145.18;100.00;46527.56;5090788;28;20034;-72
2022/07/14 08:30:32;;;;;;;13.60;2.80;;;;;;;-145.18;100.00;46527.56;5091544;28;20057;-73
2022/07/14 08:32:57;;;;;;;10.10;2.30;;;;;;;-145.18;100.00;46533.44;5090734;28;20032;-73
2022/07/14 08:35:25;;;;;;;8.50;1.83;;;;;;;-145.18;100.00;46537.34;5090821;28;20491;-73
2022/07/14 08:37:51;;;;;;;9.30;2.20;;;;;;;-145.18;100.00;46539.28;5090713;28;20529;-73
2022/07/14 08:40:20;;;;;;;10.03;2.67;;;;;;;-145.18;100.00;46527.56;5091191;28;20036;-73
2022/07/14 08:42:48;;;;;;;12.17;3.00;;;;;;;-145.18;100.00;46527.56;5090642;28;20047;-73
2022/07/14 08:45:16;;;;;;;10.07;2.50;;;;;;;-145.18;100.00;46539.28;5090509;28;20370;-73
2022/07/14 08:47:43;;;;;;;11.73;2.30;;;;;;;-145.18;100.00;46537.34;5090683;28;20026;-73
2022/07/14 08:50:12;;;;;;;7.20;2.13;;;;;;;-145.18;100.00;46539.28;5090707;28;20028;-73
2022/07/14 08:52:38;;;;;;;7.50;1.83;;;;;;;-145.18;100.00;46527.56;5091071;28;20059;-73
2022/07/14 08:55:07;;;;;;;7.50;2.60;;;;;;;-145.18;100.00;46531.47;5090104;28;20484;-73
2022/07/14 08:57:34;;;;;;;12.43;2.70;;;;;;;-145.18;100.00;46566.63;5090763;28;20028;-73
2022/07/14 08:59:59;;;;;;;8.57;2.60;;;;;;;-145.18;100.00;46556.88;5090383;28;20051;-73
2022/07/14 09:02:24;;;;;;;8.57;2.37;;;;;;;-145.18;100.00;46566.63;5090194;28;20618;-73
2022/07/14 09:04:50;;;;;;;11.77;2.50;;;;;;;-145.18;100.00;46564.69;5089654;28;20055;-73
2022/07/14 09:07:36;;;;;;;10.10;2.20;;;;;;;-145.18;100.00;46543.19;5090296;28;20066;-73
2022/07/14 09:10:09;;;;;;;13.37;2.73;;;;;;;-145.18;100.00;46537.34;5090085;28;20020;-73
2022/07/14 09:12:35;;;;;;;7.60;2.40;;;;;;;-145.18;100.00;46529.53;5090396;28;20480;-73
2022/07/14 09:17:58;;;;;;;10.77;2.57;;;;;;;-145.18;100.00;46568.59;5090481;28;20039;-72
2022/07/14 09:20:29;;;;;;;8.57;2.37;;;;;;;-145.18;100.00;46580.31;5072181;28;20283;-73
2022/07/14 09:22:56;;;;;;;10.00;2.47;;;;;;;-145.18;100.00;46562.72;5089624;28;20035;-73
2022/07/14 09:25:23;;;;;;;10.20;2.00;;;;;;;-145.18;100.00;46568.59;5089405;28;20476;-72
2022/07/14 09:27:49;;;;;;;6.10;1.80;;;;;;;-145.18;100.00;46619.38;5072096;28;20020;-72
2022/07/14 09:30:15;;;;;;;6.87;2.23;;;;;;;-145.18;100.00;46562.72;5089930;28;20476;-73
2022/07/14 09:33:10;;;;;;;9.73;2.53;;;;;;;-145.18;100.00;46547.09;5089909;28;20036;-73
2022/07/14 09:35:36;;;;;;;11.43;2.00;;;;;;;-145.18;100.00;46672.13;5086072;28;20158;-73
2022/07/14 09:38:20;;;;;;;11.90;2.37;;;;;;;-145.18;100.00;46543.19;5089549;28;20024;-73
2022/07/14 09:40:47;;;;;;;8.93;2.00;;;;;;;-145.18;100.00;46570.53;5090251;28;20103;-73
2022/07/14 09:43:13;;;;;;;6.80;1.87;;;;;;;-145.18;100.00;46931.91;5089387;28;20028;-72
2022/07/14 09:45:49;;;;;;;10.10;2.20;;;;;;;-145.18;100.00;46601.78;5089995;28;20020;-73
2022/07/14 09:48:16;;;;;;;6.17;2.10;;;;;;;-145.18;100.00;46904.56;5071685;28;20026;-73
2022/07/14 09:50:44;;;;;;;8.30;2.10;;;;;;;-145.18;100.00;47150.72;5090003;28;20414;-73
2022/07/14 09:53:20;;;;;;;8.33;1.70;;;;;;;-145.18;100.00;47121.41;5089543;28;20032;-73
2022/07/14 09:55:56;;;;;;;7.63;1.80;;;;;;;-145.18;100.00;47176.09;5089673;28;20057;-73
2022/07/14 09:58:24;;;;;;;10.03;2.50;;;;;;;-145.18;100.00;47170.25;5089288;28;20024;-73
2022/07/14 10:01:20;;;;;;;9.13;1.70;;;;;;;-145.18;100.00;47092.09;5089883;28;20058;-73
2022/07/14 10:03:50;;;;;;;9.02;1.90;;;;;;;-145.18;100.00;47135.09;5088848;28;20080;-73
2022/07/14 10:06:16;;;;;;;9.30;1.73;;;;;;;-145.18;100.00;47117.50;5089570;28;20454;-73
2022/07/14 10:08:45;;;;;;;4.37;1.60;;;;;;;-145.18;100.00;47074.53;5089130;28;20036;-73
2022/07/14 10:11:11;;;;;;;4.77;1.37;;;;;;;-145.18;100.00;47070.63;5089519;28;20507;-73
2022/07/14 10:13:37;;;;;;;4.03;1.30;;;;;;;-145.18;100.00;47094.06;5089552;28;20067;-73
2022/07/14 10:16:03;;;;;;;5.03;1.47;;;;;;;-145.18;100.00;47070.63;5089365;28;20028;-73
2022/07/14 10:18:28;;;;;;;6.73;1.60;;;;;;;-145.18;100.00;47074.53;5089172;28;20403;-73
2022/07/14 10:20:59;;;;;;;5.67;1.73;;;;;;;-145.18;100.00;47062.81;5071186;28;20024;-73
2022/07/14 10:23:26;;;;;;;7.57;1.53;;;;;;;-145.18;100.00;47043.28;5073293;28;20705;-73
2022/07/14 10:25:55;;;;;;;7.10;1.50;;;;;;;-145.18;100.00;47062.81;5089397;28;20024;-73
2022/07/14 10:28:21;;;;;;;6.77;1.60;;;;;;;-145.18;100.00;47068.66;5071711;28;20126;-73
2022/07/14 10:31:14;;;;;;;4.40;1.43;;;;;;;-145.18;100.00;47055.00;5089073;28;20036;-73
2022/07/14 10:34:03;;;;;;;9.07;1.70;;;;;;;-145.18;100.00;47051.09;5075568;28;20514;-73
2022/07/14 10:37:03;;;;;;;7.43;1.60;;;;;;;-145.18;100.00;47035.44;5089506;28;20059;-73
2022/07/14 10:39:36;;;;;;;7.20;1.60;;;;;;;-145.18;100.00;47023.72;5073637;28;20032;-73
2022/07/14 10:42:37;;;;;;;12.57;2.93;;;;;;;-145.18;100.00;47015.91;5089330;28;20119;-73
2022/07/14 10:45:03;;;;;;;5.60;1.63;;;;;;;-145.18;100.00;47008.09;5071943;28;20040;-73
2022/07/14 10:47:49;;;;;;;7.83;1.87;;;;;;;-145.18;100.00;46996.38;5089345;28;20036;-73
2022/07/14 10:50:28;;;;;;;;;;;;;;;-145.18;100.00;47019.81;5089085;28;20111;-73
2022/07/14 10:52:53;;;;;;;11.97;2.50;;;;;;;-145.18;100.00;47039.34;5092591;28;19915;-73
2022/07/14 10:55:32;;;;;;;9.50;2.37;;;;;;;-145.18;100.00;47023.72;5091710;28;20718;-73
2022/07/14 10:58:04;;;;;;;5.33;1.70;;;;;;;-145.18;100.00;47019.81;5092828;28;20038;-74
2022/07/14 11:00:44;;;;;;;6.87;2.43;;;;;;;-145.18;100.00;47012.00;5092245;28;20024;-73
2022/07/14 11:03:33;;;;;;;4.37;1.40;;;;;;;-145.18;100.00;47010.06;5091335;28;20048;-73
2022/07/14 11:06:06;;;;;;;6.13;1.50;;;;;;;-145.18;100.00;47000.28;5079453;28;20111;-74
2022/07/14 11:08:33;;;;;;;3.03;1.40;;;;;;;-145.18;100.00;46986.63;5092559;28;20070;-73
2022/07/14 11:11:00;;;;;;;4.83;1.27;;;;;;;-145.18;100.00;46982.72;5092422;28;20477;-74
2022/07/14 11:13:26;;;;;;;7.67;1.57;;;;;;;-145.18;100.00;47000.28;5092221;28;20472;-73
2022/07/14 11:15:51;;;;;;;6.60;1.93;;;;;;;-145.18;100.00;47008.09;5092225;28;20063;-73
2022/07/14 11:18:24;;;;;;;7.43;1.40;;;;;;;-145.18;100.00;47002.25;5092401;28;20020;-73